Time;durP1;ratioP1;P1;durP2;ratioP2;P2;SDS_P1;SDS_P2;PMS_P1;PMS_P2;Temp;Humidity;BMP_temperature;BMP_pressure;BME280_temperature;BME280_humidity;BME280_pressure;Samples;Min_cycle;Max_cycle;Signal;HPM_P1;HPM_P2
2022/01/04 00:00:16;;;;;;;60.20;34.00;;;;;;;6.13;94.59;94723.31;5068947;28;20565;-74
2022/01/04 00:02:45;;;;;;;73.20;37.53;;;;;;;6.03;95.93;94710.72;5069385;28;20737;-74
2022/01/04 00:05:12;;;;;;;63.17;33.57;;;;;;;6.00;96.46;94712.91;5069078;28;20298;-74
2022/01/04 00:07:43;;;;;;;60.00;32.53;;;;;;;5.97;97.23;94705.56;5069048;28;20200;-74
2022/01/04 00:10:12;;;;;;;83.97;41.70;;;;;;;6.00;96.29;94707.75;5068394;28;20203;-75
2022/01/04 00:15:25;;;;;;;93.83;44.87;;;;;;;5.83;97.84;94701.25;5065325;28;20283;-75
2022/01/04 00:17:53;;;;;;;93.63;46.93;;;;;;;5.82;97.08;94703.03;5070153;28;20484;-74
2022/01/04 00:20:20;;;;;;;93.77;46.00;;;;;;;5.80;97.50;94709.38;5074717;28;20203;-74
2022/01/04 00:22:49;;;;;;;96.63;46.70;;;;;;;5.74;97.29;94711.69;5068416;28;20208;-75
2022/01/04 00:25:18;;;;;;;86.67;43.90;;;;;;;5.69;98.43;94718.38;5068438;28;20306;-73
2022/01/04 00:27:46;;;;;;;87.27;43.07;;;;;;;5.72;98.49;94723.19;5074347;28;20213;-74
2022/01/04 00:30:15;;;;;;;94.33;44.80;;;;;;;5.66;98.78;94714.41;5073557;28;20253;-75
2022/01/04 00:32:43;;;;;;;92.77;44.53;;;;;;;5.63;99.56;94725.09;5071504;28;20191;-74
2022/01/04 00:35:13;;;;;;;93.50;44.47;;;;;;;5.67;98.25;94731.47;5064348;28;20207;-73
2022/01/04 00:37:42;;;;;;;85.07;43.33;;;;;;;5.57;98.50;94743.09;5068349;28;20266;-74
2022/01/04 00:40:11;;;;;;;84.57;42.97;;;;;;;5.54;99.00;94744.25;5064603;28;20205;-74
2022/01/04 00:42:40;;;;;;;92.07;43.63;;;;;;;5.41;98.96;94757.00;5069108;28;20201;-75
2022/01/04 00:45:08;;;;;;;85.23;42.33;;;;;;;5.50;98.17;94753.34;5068342;28;20237;-75
2022/01/04 00:47:46;;;;;;;80.03;41.73;;;;;;;5.47;98.44;94747.75;5070287;28;20207;-73
2022/01/04 00:50:13;;;;;;;88.30;45.13;;;;;;;5.40;99.27;94755.41;5070543;28;20711;-74
2022/01/04 00:52:41;;;;;;;87.93;44.13;;;;;;;5.32;98.53;94726.38;5067494;28;20211;-75
2022/01/04 00:55:10;;;;;;;92.20;43.90;;;;;;;5.39;98.48;94735.00;5068015;28;20598;-75
2022/01/04 00:57:40;;;;;;;84.37;42.97;;;;;;;5.36;99.47;94731.00;5067926;28;20244;-74
2022/01/04 01:00:10;;;;;;;98.90;45.80;;;;;;;5.23;100.00;94730.06;5067359;28;20210;-74
2022/01/04 01:02:38;;;;;;;83.23;42.43;;;;;;;5.22;100.00;94726.72;5068228;28;20604;-74
2022/01/04 01:05:07;;;;;;;85.17;42.50;;;;;;;5.18;100.00;94727.25;5067443;28;20237;-74
2022/01/04 01:07:36;;;;;;;92.90;44.80;;;;;;;5.23;100.00;94717.97;5067391;28;20227;-74
2022/01/04 01:10:20;;;;;;;92.33;46.03;;;;;;;5.26;98.89;94717.63;5066800;28;20683;-74
2022/01/04 01:12:50;;;;;;;94.40;44.83;;;;;;;5.25;99.05;94713.47;5066439;28;20580;-74
2022/01/04 01:15:18;;;;;;;82.93;42.70;;;;;;;5.18;99.68;94720.31;5068550;28;20211;-74
2022/01/04 01:17:46;;;;;;;90.10;43.97;;;;;;;5.17;99.23;94715.38;5066754;28;20250;-74
2022/01/04 01:20:15;;;;;;;80.20;41.57;;;;;;;5.12;99.27;94715.91;5069131;28;20599;-74
2022/01/04 01:22:44;;;;;;;80.73;42.60;;;;;;;5.08;99.78;94717.22;5067847;28;20255;-74
2022/01/04 01:25:13;;;;;;;82.23;43.00;;;;;;;5.04;100.00;94714.25;5062999;28;20669;-74
2022/01/04 01:27:43;;;;;;;87.17;43.83;;;;;;;5.00;100.00;94709.63;5067971;28;20197;-73
2022/01/04 01:30:14;;;;;;;85.97;43.77;;;;;;;4.96;100.00;94714.34;5068506;28;20246;-74
2022/01/04 01:32:42;;;;;;;84.53;43.20;;;;;;;4.89;100.00;94708.31;5068984;28;20668;-74
2022/01/04 01:35:10;;;;;;;89.03;43.40;;;;;;;4.89;100.00;94707.53;5062703;28;20661;-73
2022/01/04 01:37:38;;;;;;;96.33;44.43;;;;;;;4.78;100.00;94708.00;5069115;28;20257;-73
2022/01/04 01:40:07;;;;;;;83.40;40.50;;;;;;;4.74;100.00;94702.41;5067722;28;20206;-73
2022/01/04 01:42:36;;;;;;;74.67;39.80;;;;;;;4.79;100.00;94705.22;5068905;28;20211;-73
2022/01/04 01:45:05;;;;;;;77.57;37.70;;;;;;;4.76;100.00;94712.53;5068902;28;20205;-73
2022/01/04 01:47:37;;;;;;;70.47;38.17;;;;;;;4.76;100.00;94722.84;5069643;28;20251;-74
2022/01/04 01:50:05;;;;;;;75.73;38.03;;;;;;;4.74;100.00;94707.56;5068924;28;20586;-74
2022/01/04 01:52:33;;;;;;;80.03;39.97;;;;;;;4.74;100.00;94710.13;5068020;28;20204;-74
2022/01/04 01:55:01;;;;;;;83.00;41.10;;;;;;;4.75;100.00;94710.94;5067170;28;20309;-73
2022/01/04 01:57:30;;;;;;;92.30;42.60;;;;;;;4.72;100.00;94722.41;5067731;28;20221;-74
2022/01/04 01:59:59;;;;;;;85.73;41.70;;;;;;;4.66;100.00;94701.72;5067885;28;20205;-74
2022/01/04 02:02:26;;;;;;;86.97;40.63;;;;;;;4.64;100.00;94711.41;5067317;28;20347;-74
2022/01/04 02:04:56;;;;;;;85.67;40.07;;;;;;;4.51;100.00;94699.97;5068454;28;20216;-74
2022/01/04 02:07:24;;;;;;;83.43;42.10;;;;;;;4.53;100.00;94704.94;5068280;28;20213;-73
2022/01/04 02:10:02;;;;;;;78.33;39.53;;;;;;;4.54;100.00;94709.91;5067169;28;20213;-73
2022/01/04 02:12:31;;;;;;;61.37;27.83;;;;;;;4.34;100.00;94701.13;5068529;28;20197;-75
2022/01/04 02:15:00;;;;;;;63.33;31.60;;;;;;;4.43;100.00;94697.50;5068149;28;20215;-74
2022/01/04 02:17:28;;;;;;;73.03;35.30;;;;;;;4.38;100.00;94694.69;5071876;28;20306;-75
2022/01/04 02:19:58;;;;;;;71.00;35.00;;;;;;;4.38;100.00;94696.44;5070901;28;20204;-74
2022/01/04 02:22:26;;;;;;;73.73;35.97;;;;;;;4.45;100.00;94707.59;5077082;28;20212;-73
2022/01/04 02:24:55;;;;;;;75.17;35.30;;;;;;;4.43;100.00;94707.00;5071502;28;20295;-73
2022/01/04 02:27:23;;;;;;;73.93;35.07;;;;;;;4.36;100.00;94706.09;5072175;28;20197;-73
2022/01/04 02:29:52;;;;;;;72.70;35.40;;;;;;;4.35;100.00;94704.50;5072411;28;20827;-74
2022/01/04 02:32:20;;;;;;;65.57;33.63;;;;;;;4.21;100.00;94677.84;5072144;28;20217;-74
2022/01/04 02:34:49;;;;;;;65.77;33.70;;;;;;;4.24;100.00;94700.59;5072110;28;20201;-73
2022/01/04 02:37:22;;;;;;;70.17;34.30;;;;;;;4.26;100.00;94701.25;5065929;28;20201;-74
2022/01/04 02:39:50;;;;;;;66.00;33.60;;;;;;;4.25;100.00;94704.78;5070909;28;20707;-74
2022/01/04 02:42:18;;;;;;;66.83;34.17;;;;;;;4.16;100.00;94700.69;5071062;28;20282;-73
2022/01/04 02:44:46;;;;;;;66.63;33.23;;;;;;;4.15;100.00;94695.75;5070628;28;20583;-73
2022/01/04 02:47:16;;;;;;;64.37;33.40;;;;;;;4.20;100.00;94698.56;5072565;28;20216;-73
2022/01/04 02:49:45;;;;;;;68.00;33.33;;;;;;;4.23;100.00;94691.31;5072128;28;20287;-74
2022/01/04 02:52:14;;;;;;;61.47;32.80;;;;;;;4.26;100.00;94690.94;5064645;28;20197;-74
2022/01/04 02:54:42;;;;;;;64.90;33.10;;;;;;;4.19;100.00;94676.41;5068631;28;20314;-75
2022/01/04 02:57:12;;;;;;;64.80;33.10;;;;;;;4.15;100.00;94690.59;5064040;28;20206;-74
2022/01/04 02:59:40;;;;;;;61.20;30.60;;;;;;;4.09;100.00;94683.59;5069652;28;20293;-74
2022/01/04 03:02:08;;;;;;;62.50;32.20;;;;;;;4.17;100.00;94680.94;5069759;28;20201;-74
2022/01/04 03:04:35;;;;;;;61.23;30.73;;;;;;;4.18;100.00;94672.25;5069973;28;20290;-73
2022/01/04 03:07:04;;;;;;;225.87;125.83;;;;;;;4.12;100.00;94666.03;5071616;28;20201;-73
2022/01/04 03:09:31;;;;;;;141.47;78.90;;;;;;;4.00;100.00;94663.13;5069543;28;20251;-73
2022/01/04 03:12:04;;;;;;;92.47;45.80;;;;;;;4.05;100.00;94667.72;5069974;28;20617;-73
2022/01/04 03:14:32;;;;;;;63.30;33.83;;;;;;;4.01;100.00;94677.56;5069913;28;20276;-74
2022/01/04 03:17:00;;;;;;;61.33;31.73;;;;;;;3.95;100.00;94675.69;5070259;28;20197;-74
2022/01/04 03:19:28;;;;;;;58.97;29.97;;;;;;;3.94;100.00;94675.88;5068707;28;20885;-74
2022/01/04 03:21:57;;;;;;;59.90;31.30;;;;;;;3.96;100.00;94677.28;5069276;28;20220;-74
2022/01/04 03:24:28;;;;;;;58.03;30.17;;;;;;;3.96;100.00;94676.50;5069733;28;20205;-74
2022/01/04 03:26:57;;;;;;;60.03;31.97;;;;;;;3.95;100.00;94673.13;5070107;28;20725;-74
2022/01/04 03:29:26;;;;;;;67.43;34.63;;;;;;;3.93;100.00;94676.84;5068241;28;20696;-75
2022/01/04 03:31:57;;;;;;;78.67;40.03;;;;;;;3.88;100.00;94676.56;5069380;28;20202;-74
2022/01/04 03:34:26;;;;;;;80.13;40.10;;;;;;;3.77;100.00;94687.28;5069975;28;20201;-75
2022/01/04 03:36:53;;;;;;;83.17;41.30;;;;;;;3.72;100.00;94682.66;5069862;28;20208;-74
2022/01/04 03:39:21;;;;;;;78.97;40.60;;;;;;;3.77;100.00;94688.09;5068728;28;20308;-74
2022/01/04 03:41:50;;;;;;;78.67;39.40;;;;;;;3.84;100.00;94683.03;5073586;28;20286;-75
2022/01/04 03:44:20;;;;;;;78.27;38.60;;;;;;;3.83;100.00;94692.53;5069497;28;20720;-74
2022/01/04 03:46:59;;;;;;;84.87;42.23;;;;;;;3.77;100.00;94695.00;5070669;28;20296;-74
2022/01/04 03:49:27;;;;;;;85.03;44.37;;;;;;;3.77;100.00;94688.09;5070894;28;20198;-75
2022/01/04 03:51:56;;;;;;;86.10;45.77;;;;;;;3.75;100.00;94694.38;5074378;28;20201;-74
2022/01/04 03:54:23;;;;;;;83.50;42.47;;;;;;;3.71;100.00;94698.28;5069828;28;20688;-74
2022/01/04 03:56:51;;;;;;;83.97;43.40;;;;;;;3.68;100.00;94707.13;5068745;28;20267;-74
2022/01/04 03:59:19;;;;;;;137.97;78.03;;;;;;;3.70;100.00;94697.47;5070011;28;20280;-74
2022/01/04 04:01:47;;;;;;;123.00;67.07;;;;;;;3.66;100.00;94698.81;5070621;28;20209;-77
2022/01/04 04:04:17;;;;;;;119.33;64.33;;;;;;;3.65;100.00;94686.13;5069462;28;20201;-73
2022/01/04 04:06:45;;;;;;;130.43;74.13;;;;;;;3.59;100.00;94691.94;5069641;28;20201;-70
2022/01/04 04:09:14;;;;;;;121.70;64.20;;;;;;;3.58;100.00;94691.16;5069321;28;20216;-69
2022/01/04 04:11:44;;;;;;;118.53;62.33;;;;;;;3.55;100.00;94695.84;5069284;28;20216;-69
2022/01/04 04:14:12;;;;;;;116.50;60.97;;;;;;;3.58;100.00;94693.72;5067873;28;20267;-69
2022/01/04 04:16:40;;;;;;;132.47;69.87;;;;;;;3.53;100.00;94680.59;5072926;28;20860;-69
2022/01/04 04:19:08;;;;;;;129.47;70.93;;;;;;;3.59;100.00;94691.94;5067808;28;20245;-70
2022/01/04 04:21:37;;;;;;;135.73;78.90;;;;;;;3.52;100.00;94691.84;5067619;28;20274;-74
2022/01/04 04:24:07;;;;;;;143.87;81.77;;;;;;;3.53;100.00;94690.06;5066490;28;20292;-71
2022/01/04 04:26:35;;;;;;;137.57;80.90;;;;;;;3.57;100.00;94699.84;5065206;28;20259;-70
2022/01/04 04:29:03;;;;;;;137.33;79.63;;;;;;;3.49;100.00;94699.13;5067719;28;20201;-70
2022/01/04 04:31:31;;;;;;;152.63;85.63;;;;;;;3.48;100.00;94698.31;5065839;28;20292;-70
2022/01/04 04:33:58;;;;;;;154.83;87.60;;;;;;;3.52;100.00;94698.78;5069211;28;20216;-70
2022/01/04 04:36:27;;;;;;;179.23;91.80;;;;;;;3.40;100.00;94686.34;5068761;28;20688;-70
2022/01/04 04:38:56;;;;;;;180.47;100.77;;;;;;;3.48;100.00;94710.34;5067345;28;20916;-71
2022/01/04 04:41:23;;;;;;;179.50;101.73;;;;;;;3.46;100.00;94714.88;5063265;28;20580;-70
2022/01/04 04:43:54;;;;;;;179.43;101.33;;;;;;;3.44;100.00;94730.44;5068057;28;20213;-70
2022/01/04 04:46:21;;;;;;;189.63;106.30;;;;;;;3.37;100.00;94725.22;5069468;28;20671;-70
2022/01/04 04:48:49;;;;;;;178.53;103.10;;;;;;;3.40;100.00;94719.75;5067345;28;20207;-70
2022/01/04 04:51:16;;;;;;;187.03;103.03;;;;;;;3.41;100.00;94717.94;5067862;28;20213;-70
2022/01/04 04:53:44;;;;;;;162.73;91.07;;;;;;;3.38;100.00;94720.84;5067342;28;20208;-70
2022/01/04 04:56:13;;;;;;;148.17;79.20;;;;;;;3.35;100.00;94726.34;5062775;28;20224;-70
2022/01/04 04:58:41;;;;;;;103.97;54.43;;;;;;;3.20;100.00;94725.50;5069491;28;20680;-70
2022/01/04 05:01:13;;;;;;;93.33;47.80;;;;;;;3.15;100.00;94723.44;5065689;28;20196;-74
2022/01/04 05:03:41;;;;;;;108.90;58.30;;;;;;;3.21;100.00;94735.59;5068072;28;20687;-72
2022/01/04 05:06:09;;;;;;;127.60;65.90;;;;;;;3.17;100.00;94721.50;5065579;28;20288;-71
2022/01/04 05:08:37;;;;;;;144.20;74.40;;;;;;;3.15;100.00;94726.00;5067209;28;20288;-71
2022/01/04 05:11:04;;;;;;;146.53;79.17;;;;;;;3.14;100.00;94728.75;5067107;28;20208;-70
2022/01/04 05:13:33;;;;;;;126.97;65.03;;;;;;;3.10;100.00;94727.47;5066886;28;20233;-70
2022/01/04 05:16:00;;;;;;;101.87;53.93;;;;;;;3.13;100.00;94722.00;5068701;28;20201;-70
2022/01/04 05:18:28;;;;;;;123.07;64.93;;;;;;;3.16;100.00;94722.47;5072099;28;20228;-70
2022/01/04 05:20:56;;;;;;;120.60;61.30;;;;;;;3.23;100.00;94718.22;5066814;28;20700;-71
2022/01/04 05:23:23;;;;;;;175.83;91.30;;;;;;;3.26;100.00;94719.69;5066649;28;20718;-70
2022/01/04 05:25:50;;;;;;;180.63;94.23;;;;;;;3.29;100.00;94714.22;5066730;28;20263;-70
2022/01/04 05:28:19;;;;;;;188.27;90.77;;;;;;;3.34;100.00;94715.28;5066663;28;20285;-70
2022/01/04 05:30:51;;;;;;;169.13;90.17;;;;;;;3.22;100.00;94693.53;5064827;28;20228;-71
2022/01/04 05:33:18;;;;;;;144.27;77.93;;;;;;;3.22;100.00;94698.69;5065143;28;20221;-70
2022/01/04 05:35:47;;;;;;;164.30;88.60;;;;;;;3.24;100.00;94706.19;5066102;28;20244;-70
2022/01/04 05:38:16;;;;;;;186.17;94.97;;;;;;;3.17;100.00;94695.84;5065886;28;20272;-69
2022/01/04 05:40:44;;;;;;;175.70;93.33;;;;;;;3.17;100.00;94707.88;5065952;28;20200;-70
2022/01/04 05:43:13;;;;;;;170.23;86.00;;;;;;;3.12;100.00;94710.13;5064962;28;20200;-70
2022/01/04 05:45:42;;;;;;;186.80;93.30;;;;;;;3.22;100.00;94711.53;5064283;28;20714;-71
2022/01/04 05:48:11;;;;;;;177.73;93.50;;;;;;;3.26;100.00;94707.63;5063055;28;20251;-70
2022/01/04 05:50:39;;;;;;;173.03;87.30;;;;;;;3.24;100.00;94701.88;5065525;28;20839;-71
2022/01/04 05:53:10;;;;;;;169.50;88.83;;;;;;;3.23;100.00;94699.47;5067376;28;20201;-71
2022/01/04 05:55:38;;;;;;;169.70;86.73;;;;;;;3.20;100.00;94697.25;5070256;28;20232;-71
2022/01/04 05:58:05;;;;;;;119.43;63.73;;;;;;;3.19;100.00;94711.84;5069940;28;20189;-71
2022/01/04 06:00:33;;;;;;;123.50;61.03;;;;;;;3.10;100.00;94692.34;5070426;28;20531;-70
2022/01/04 06:03:01;;;;;;;137.80;70.27;;;;;;;3.16;100.00;94706.25;5072063;28;20193;-70
2022/01/04 06:05:31;;;;;;;142.93;70.03;;;;;;;3.20;100.00;94704.97;5071800;28;20209;-71
2022/01/04 06:08:01;;;;;;;143.10;67.30;;;;;;;3.17;100.00;94703.53;5070456;28;20262;-71
2022/01/04 06:10:36;;;;;;;143.10;66.87;;;;;;;3.16;100.00;94701.94;5070504;28;20777;-71
2022/01/04 06:15:47;;;;;;;139.10;66.43;;;;;;;3.18;100.00;94697.41;5071341;28;20208;-70
2022/01/04 06:18:16;;;;;;;147.53;68.53;;;;;;;3.15;100.00;94710.59;5070721;28;20236;-70
2022/01/04 06:20:46;;;;;;;143.70;70.93;;;;;;;3.17;100.00;94713.81;5070726;28;20189;-70
2022/01/04 06:23:14;;;;;;;196.33;89.87;;;;;;;3.19;100.00;94706.72;5071720;28;20259;-71
2022/01/04 06:25:42;;;;;;;191.80;90.63;;;;;;;3.29;100.00;94707.28;5068364;28;20205;-70
2022/01/04 06:28:10;;;;;;;178.77;88.20;;;;;;;3.27;100.00;94696.38;5071747;28;20233;-70
2022/01/04 06:30:39;;;;;;;172.27;81.50;;;;;;;3.35;100.00;94695.50;5071622;28;20247;-70
2022/01/04 06:33:09;;;;;;;162.93;78.00;;;;;;;3.31;100.00;94692.50;5072163;28;20201;-70
2022/01/04 06:35:37;;;;;;;162.80;83.10;;;;;;;3.30;100.00;94688.34;5070886;28;20213;-72
2022/01/04 06:38:07;;;;;;;186.20;93.73;;;;;;;3.44;100.00;94684.22;5071020;28;20262;-70
2022/01/04 06:40:36;;;;;;;194.13;96.70;;;;;;;3.48;100.00;94689.81;5071694;28;20773;-70
2022/01/04 06:43:04;;;;;;;177.10;91.20;;;;;;;3.48;100.00;94690.59;5070940;28;20263;-70
2022/01/04 06:45:32;;;;;;;160.60;75.73;;;;;;;3.48;100.00;94693.19;5071421;28;20213;-70
2022/01/04 06:48:01;;;;;;;98.73;48.33;;;;;;;3.54;100.00;94695.06;5070465;28;20660;-70
2022/01/04 06:50:30;;;;;;;79.93;39.53;;;;;;;3.57;100.00;94691.34;5071320;28;20217;-70
2022/01/04 06:52:57;;;;;;;62.67;33.03;;;;;;;3.62;100.00;94682.13;5071783;28;20283;-70
2022/01/04 06:55:26;;;;;;;66.17;32.80;;;;;;;3.69;100.00;94685.59;5071074;28;20295;-70
2022/01/04 06:57:56;;;;;;;61.07;34.00;;;;;;;3.71;100.00;94680.28;5064978;28;20326;-83
2022/01/04 07:00:24;;;;;;;68.27;33.40;;;;;;;3.74;100.00;94690.22;5066893;28;20236;-81
2022/01/04 07:02:52;;;;;;;63.20;33.90;;;;;;;3.77;100.00;94697.56;5069809;28;20288;-77
2022/01/04 07:05:20;;;;;;;62.67;32.07;;;;;;;3.81;100.00;94697.03;5074880;28;20284;-82
2022/01/04 07:07:47;;;;;;;58.17;32.17;;;;;;;3.86;100.00;94706.81;5071610;28;20240;-82
2022/01/04 07:10:15;;;;;;;65.50;33.17;;;;;;;3.92;100.00;94703.53;5070672;28;20198;-81
2022/01/04 07:12:44;;;;;;;56.77;33.07;;;;;;;3.95;100.00;94703.19;5065618;28;20213;-82
2022/01/04 07:15:11;;;;;;;76.20;34.80;;;;;;;4.03;100.00;94704.88;5073043;28;20233;-82
2022/01/04 07:17:42;;;;;;;71.43;36.47;;;;;;;4.03;100.00;94710.81;5076384;28;20284;-82
2022/01/04 07:20:10;;;;;;;76.63;36.73;;;;;;;4.05;100.00;94701.13;5065692;28;20271;-82
2022/01/04 07:22:38;;;;;;;76.17;37.73;;;;;;;4.11;100.00;94699.63;5065962;28;20239;-81
2022/01/04 07:25:07;;;;;;;70.37;37.07;;;;;;;4.14;100.00;94694.13;5073824;28;20197;-81
2022/01/04 07:27:35;;;;;;;72.20;36.97;;;;;;;4.15;100.00;94703.47;5072572;28;20201;-83
2022/01/04 07:30:05;;;;;;;71.57;38.40;;;;;;;4.24;100.00;94698.03;5072246;28;20261;-82
2022/01/04 07:32:33;;;;;;;76.50;40.77;;;;;;;4.18;100.00;94679.97;5072064;28;20268;-83
2022/01/04 07:35:01;;;;;;;72.03;37.50;;;;;;;4.26;100.00;94692.72;5072922;28;20186;-83
2022/01/04 07:37:29;;;;;;;77.20;39.47;;;;;;;4.28;100.00;94693.34;5072945;28;20202;-79
2022/01/04 07:39:58;;;;;;;76.20;38.60;;;;;;;4.29;100.00;94688.03;5073679;28;20381;-81
2022/01/04 07:42:25;;;;;;;74.27;39.63;;;;;;;4.42;100.00;94698.47;5076290;28;20212;-82
2022/01/04 07:44:54;;;;;;;82.40;40.37;;;;;;;4.34;100.00;94679.75;5065655;28;20204;-83
2022/01/04 07:47:24;;;;;;;94.63;39.97;;;;;;;4.44;100.00;94690.59;5072328;28;20201;-85
2022/01/04 07:49:51;;;;;;;73.47;39.77;;;;;;;4.48;100.00;94692.59;5073032;28;20209;-85
2022/01/04 07:52:18;;;;;;;73.73;39.63;;;;;;;4.58;100.00;94698.28;5072123;28;20245;-81
2022/01/04 07:54:46;;;;;;;77.47;39.33;;;;;;;4.68;100.00;94705.69;5073601;28;20576;-84
2022/01/04 07:57:14;;;;;;;65.53;36.17;;;;;;;4.73;100.00;94708.56;5071750;28;20213;-86
2022/01/04 07:59:42;;;;;;;56.27;31.33;;;;;;;4.74;100.00;94702.41;5065545;28;21221;-86
2022/01/04 08:02:15;;;;;;;53.30;28.80;;;;;;;4.64;100.00;94688.25;5069081;28;20690;-85
2022/01/04 08:04:46;;;;;;;45.83;26.30;;;;;;;4.78;100.00;94695.13;5062284;28;20201;-79
2022/01/04 08:07:13;;;;;;;49.93;28.70;;;;;;;4.79;99.15;94691.59;5074784;28;20679;-77
2022/01/04 08:09:41;;;;;;;53.73;29.23;;;;;;;4.80;98.59;94675.94;5072333;28;20219;-78
2022/01/04 08:12:09;;;;;;;63.50;32.43;;;;;;;4.88;98.24;94695.63;5071109;28;20629;-78
2022/01/04 08:14:38;;;;;;;70.23;35.73;;;;;;;4.82;98.11;94699.72;5076321;28;20201;-90
2022/01/04 08:17:06;;;;;;;70.63;34.97;;;;;;;4.38;98.92;94624.41;5072588;28;20201;-87
2022/01/04 08:19:36;;;;;;;73.23;35.53;;;;;;;4.95;98.32;94706.81;5054412;28;20261;-86
2022/01/04 08:22:08;;;;;;;70.23;37.93;;;;;;;4.79;98.34;94691.59;5063412;28;20197;-86
2022/01/04 08:24:37;;;;;;;82.70;45.47;;;;;;;4.25;100.00;94622.47;5066412;28;20201;-86
2022/01/04 08:27:06;;;;;;;93.37;50.80;;;;;;;4.80;100.00;94695.75;5072241;28;20206;-84
2022/01/04 08:29:37;;;;;;;96.43;53.23;;;;;;;4.90;100.00;94694.50;5066073;28;20236;-84
2022/01/04 08:32:05;;;;;;;81.07;46.17;;;;;;;4.54;99.81;94619.84;5062766;28;20206;-84
2022/01/04 08:34:33;;;;;;;76.17;42.33;;;;;;;5.16;99.84;94688.81;5073291;28;20198;-85
2022/01/04 08:37:04;;;;;;;70.90;37.73;;;;;;;5.28;98.30;94679.56;5072049;28;20660;-84
2022/01/04 08:39:33;;;;;;;60.07;34.17;;;;;;;5.41;97.53;94674.56;5071806;28;20225;-87
2022/01/04 08:42:02;;;;;;;53.27;31.17;;;;;;;5.46;97.39;94679.94;5071721;28;20205;-84
2022/01/04 08:44:31;;;;;;;52.03;29.87;;;;;;;5.46;97.15;94655.94;5072091;28;20581;-86
2022/01/04 08:47:01;;;;;;;55.00;29.60;;;;;;;5.56;97.70;94670.13;5086494;28;20246;-86
2022/01/04 08:49:30;;;;;;;45.43;25.87;;;;;;;5.70;96.17;94671.00;5065475;28;20207;-83
2022/01/04 08:51:57;;;;;;;53.17;25.63;;;;;;;5.80;95.27;94673.28;5071590;28;20286;-84
2022/01/04 08:54:26;;;;;;;42.73;24.20;;;;;;;5.89;94.43;94683.28;5064141;28;20273;-84
2022/01/04 08:56:56;;;;;;;47.67;24.70;;;;;;;5.89;93.66;94669.59;5057690;28;20286;-85
2022/01/04 08:59:24;;;;;;;43.53;24.50;;;;;;;5.88;93.91;94668.00;5065898;28;20246;-85
2022/01/04 09:01:51;;;;;;;43.00;23.93;;;;;;;5.95;94.35;94682.53;5061764;28;20819;-85
2022/01/04 09:04:21;;;;;;;39.07;23.43;;;;;;;5.96;94.21;94668.66;5068035;28;20247;-84
2022/01/04 09:06:48;;;;;;;39.67;22.93;;;;;;;6.00;94.42;94667.25;5069604;28;20209;-87
2022/01/04 09:09:16;;;;;;;38.77;23.27;;;;;;;6.06;95.10;94669.09;5090451;28;20212;-84
2022/01/04 09:11:45;;;;;;;38.77;23.90;;;;;;;6.09;94.09;94666.13;5080386;28;20210;-84
2022/01/04 09:14:29;;;;;;;40.83;23.13;;;;;;;6.05;93.64;94657.19;5082499;28;20209;-83
2022/01/04 09:19:41;;;;;;;41.63;23.60;;;;;;;5.93;96.27;94653.56;5071359;28;20272;-86
2022/01/04 09:22:09;;;;;;;43.43;25.10;;;;;;;6.02;95.52;94642.09;5070361;28;20206;-87
2022/01/04 09:24:37;;;;;;;41.93;23.10;;;;;;;6.13;94.57;94641.56;5070751;28;20203;-86
2022/01/04 09:27:06;;;;;;;39.83;24.27;;;;;;;6.19;94.41;94635.63;5070430;28;20202;-87
2022/01/04 09:29:35;;;;;;;38.47;23.50;;;;;;;6.09;93.62;94611.97;5070760;28;20231;-87
2022/01/04 09:32:05;;;;;;;42.10;23.07;;;;;;;6.19;92.56;94617.59;5070913;28;20184;-87
2022/01/04 09:34:32;;;;;;;41.67;24.10;;;;;;;6.10;93.03;94617.91;5071874;28;20206;-88
2022/01/04 09:36:59;;;;;;;42.77;23.40;;;;;;;6.10;93.95;94620.50;5073923;28;20642;-87
2022/01/04 09:39:26;;;;;;;40.57;23.23;;;;;;;6.06;95.01;94604.59;5070672;28;20619;-87
2022/01/04 09:41:55;;;;;;;41.93;23.77;;;;;;;6.08;94.10;94604.44;5070390;28;20290;-87
2022/01/04 09:44:25;;;;;;;42.03;22.77;;;;;;;6.10;94.56;94600.66;5072008;28;20205;-86
2022/01/04 09:46:53;;;;;;;37.17;21.77;;;;;;;6.21;94.44;94589.78;5077759;28;20294;-87
2022/01/04 09:49:21;;;;;;;39.97;21.93;;;;;;;6.29;93.66;94586.28;5073838;28;20686;-88
2022/01/04 09:51:51;;;;;;;34.13;20.77;;;;;;;6.35;93.79;94592.44;5085370;28;20242;-87
2022/01/04 09:54:21;;;;;;;41.30;22.03;;;;;;;6.37;93.53;94574.97;5082088;28;20295;-86
2022/01/04 09:56:50;;;;;;;38.27;21.87;;;;;;;6.49;93.19;94569.06;5076529;28;20214;-86
2022/01/04 09:59:20;;;;;;;42.93;22.33;;;;;;;6.75;91.18;94574.25;5081083;28;20203;-87
2022/01/04 10:01:53;;;;;;;39.00;21.33;;;;;;;7.16;88.90;94543.09;5076473;28;20261;-85
2022/01/04 10:04:24;;;;;;;34.87;19.77;;;;;;;8.68;83.95;94556.41;5081597;28;20204;-87
2022/01/04 10:07:03;;;;;;;34.17;19.63;;;;;;;10.82;71.93;94564.84;5076157;28;20223;-87
2022/01/04 10:09:41;;;;;;;36.43;19.93;;;;;;;13.19;62.47;94565.78;5069596;28;20196;-87
2022/01/04 10:12:10;;;;;;;37.97;19.60;;;;;;;15.03;55.21;94570.38;5084202;28;20233;-89
2022/01/04 10:14:40;;;;;;;42.13;20.17;;;;;;;16.61;50.41;94563.34;5076117;28;20582;-86
2022/01/04 10:17:10;;;;;;;38.10;19.90;;;;;;;17.79;47.64;94553.56;5072750;28;20707;-86
2022/01/04 10:19:42;;;;;;;37.40;21.60;;;;;;;19.36;43.52;94558.22;5077709;28;20664;-82
2022/01/04 10:22:16;;;;;;;33.90;20.03;;;;;;;20.27;40.81;94564.34;5076908;28;20645;-82
2022/01/04 10:24:45;;;;;;;27.30;17.97;;;;;;;21.07;38.96;94556.50;5080708;28;20200;-82
2022/01/04 10:27:33;;;;;;;30.10;17.77;;;;;;;21.66;37.21;94541.91;5077210;28;20201;-83
2022/01/04 10:30:23;;;;;;;35.13;18.00;;;;;;;22.28;35.47;94540.59;5073649;28;20264;-83
2022/01/04 10:32:54;;;;;;;23.57;17.30;;;;;;;22.46;34.62;94547.66;5075764;28;20193;-83
2022/01/04 10:35:35;;;;;;;27.63;18.57;;;;;;;22.84;33.52;94535.78;5073315;28;20255;-83
2022/01/04 10:38:14;;;;;;;29.55;18.58;;;;;;;22.30;33.55;94531.28;5078777;28;20276;-84
2022/01/04 10:40:45;;;;;;;32.35;19.80;;;;;;;22.13;34.02;94531.06;5085353;28;20240;-84
2022/01/04 10:43:14;;;;;;;25.45;16.70;;;;;;;22.25;33.19;94528.69;5085729;28;20219;-83
2022/01/04 10:45:44;;;;;;;28.63;17.45;;;;;;;22.97;32.13;94540.25;5086878;28;20924;-83
2022/01/04 10:48:15;;;;;;;31.35;17.08;;;;;;;22.85;32.37;94533.94;5085487;28;20198;-83
2022/01/04 10:50:46;;;;;;;25.70;17.05;;;;;;;22.78;32.05;94533.53;5080621;28;20201;-84
2022/01/04 10:53:33;;;;;;;31.08;16.30;;;;;;;22.88;32.36;94530.69;5073781;28;20566;-83
2022/01/04 10:56:04;;;;;;;25.42;16.70;;;;;;;22.72;32.08;94522.25;5079311;28;20205;-84
2022/01/04 10:58:34;;;;;;;27.48;16.88;;;;;;;22.58;32.19;94527.53;5078089;28;20645;-84
2022/01/04 11:01:05;;;;;;;29.67;17.15;;;;;;;22.58;32.76;94513.50;5076206;28;20248;-83
2022/01/04 11:03:35;;;;;;;36.80;19.75;;;;;;;22.30;32.57;94517.25;5079149;28;20652;-85
2022/01/04 11:06:08;;;;;;;27.10;19.17;;;;;;;21.73;33.20;94511.34;5081114;28;20661;-84
2022/01/04 11:08:37;;;;;;;27.83;17.20;;;;;;;20.60;35.13;94512.47;5079262;28;20198;-84
2022/01/04 11:11:05;;;;;;;24.92;16.65;;;;;;;19.87;35.76;94490.84;5081154;28;20671;-84
2022/01/04 11:13:33;;;;;;;29.15;17.55;;;;;;;19.93;36.63;94496.84;5085589;28;20225;-84
2022/01/04 11:16:02;;;;;;;25.63;18.13;;;;;;;19.65;36.30;94491.28;5086126;28;20659;-84
2022/01/04 11:18:32;;;;;;;33.17;20.17;;;;;;;19.18;37.11;94480.59;5076321;28;20205;-84
2022/01/04 11:20:59;;;;;;;31.17;18.47;;;;;;;19.07;37.71;94487.81;5083436;28;20577;-85
2022/01/04 11:23:32;;;;;;;34.63;18.73;;;;;;;18.59;38.13;94489.41;5083323;28;20254;-83
2022/01/04 11:26:03;;;;;;;32.80;18.80;;;;;;;18.30;38.84;94490.28;5075436;28;20216;-83
2022/01/04 11:28:31;;;;;;;29.60;17.13;;;;;;;18.60;38.94;94491.00;5073616;28;20221;-83
2022/01/04 11:31:50;;;;;;;30.90;17.57;;;;;;;19.18;37.59;94477.97;5086388;28;20264;-84
2022/01/04 11:34:26;;;;;;;26.13;16.67;;;;;;;19.18;36.98;94475.34;5029524;28;20195;-86